sensor_id;sensor_type;location;lat;lon;timestamp;temperature;humidity
65972;SHT31;52726;48.852;9.152;2023-12-14T00:01:33;5.75;97.89
65972;SHT31;52726;48.852;9.152;2023-12-14T00:03:59;5.75;97.79
65972;SHT31;52726;48.852;9.152;2023-12-14T00:06:24;5.77;97.80
65972;SHT31;52726;48.852;9.152;2023-12-14T00:08:49;5.76;97.75
65972;SHT31;52726;48.852;9.152;2023-12-14T00:11:15;5.76;97.75
65972;SHT31;52726;48.852;9.152;2023-12-14T00:13:40;5.77;97.72
65972;SHT31;52726;48.852;9.152;2023-12-14T00:16:06;5.77;97.76
65972;SHT31;52726;48.852;9.152;2023-12-14T00:18:32;5.80;97.84
65972;SHT31;52726;48.852;9.152;2023-12-14T00:20:57;5.82;97.82
65972;SHT31;52726;48.852;9.152;2023-12-14T00:23:23;5.80;97.80
65972;SHT31;52726;48.852;9.152;2023-12-14T00:25:49;5.82;97.78
65972;SHT31;52726;48.852;9.152;2023-12-14T00:28:14;5.83;97.71
65972;SHT31;52726;48.852;9.152;2023-12-14T00:30:40;5.83;97.73
65972;SHT31;52726;48.852;9.152;2023-12-14T00:33:05;5.83;97.75
65972;SHT31;52726;48.852;9.152;2023-12-14T00:35:31;5.80;97.67
65972;SHT31;52726;48.852;9.152;2023-12-14T00:37:56;5.77;97.78
65972;SHT31;52726;48.852;9.152;2023-12-14T00:40:22;5.76;97.76
65972;SHT31;52726;48.852;9.152;2023-12-14T00:42:47;5.75;97.81
65972;SHT31;52726;48.852;9.152;2023-12-14T00:45:12;5.75;97.85
65972;SHT31;52726;48.852;9.152;2023-12-14T00:47:38;5.76;97.96
65972;SHT31;52726;48.852;9.152;2023-12-14T00:50:03;5.76;98.01
65972;SHT31;52726;48.852;9.152;2023-12-14T00:52:29;5.75;98.01
65972;SHT31;52726;48.852;9.152;2023-12-14T00:54:55;5.76;98.09
65972;SHT31;52726;48.852;9.152;2023-12-14T00:57:20;5.77;98.01
65972;SHT31;52726;48.852;9.152;2023-12-14T00:59:46;5.79;97.95
65972;SHT31;52726;48.852;9.152;2023-12-14T01:02:11;5.77;97.98
65972;SHT31;52726;48.852;9.152;2023-12-14T01:04:37;5.79;97.84
65972;SHT31;52726;48.852;9.152;2023-12-14T01:07:03;5.77;97.77
65972;SHT31;52726;48.852;9.152;2023-12-14T01:09:28;5.77;97.76
65972;SHT31;52726;48.852;9.152;2023-12-14T01:11:53;5.77;97.73
65972;SHT31;52726;48.852;9.152;2023-12-14T01:14:19;5.76;97.70
65972;SHT31;52726;48.852;9.152;2023-12-14T01:16:44;5.73;97.64
65972;SHT31;52726;48.852;9.152;2023-12-14T01:19:10;5.73;97.66
65972;SHT31;52726;48.852;9.152;2023-12-14T01:21:35;5.75;97.64
65972;SHT31;52726;48.852;9.152;2023-12-14T01:24:00;5.76;97.64
65972;SHT31;52726;48.852;9.152;2023-12-14T01:26:26;5.75;97.66
65972;SHT31;52726;48.852;9.152;2023-12-14T01:28:52;5.76;97.67
65972;SHT31;52726;48.852;9.152;2023-12-14T01:31:18;5.75;97.73
65972;SHT31;52726;48.852;9.152;2023-12-14T01:33:44;5.76;97.74
65972;SHT31;52726;48.852;9.152;2023-12-14T01:36:11;5.76;97.63
65972;SHT31;52726;48.852;9.152;2023-12-14T01:38:36;5.79;97.60
65972;SHT31;52726;48.852;9.152;2023-12-14T01:41:02;5.76;97.70
65972;SHT31;52726;48.852;9.152;2023-12-14T01:43:28;5.73;97.66
65972;SHT31;52726;48.852;9.152;2023-12-14T01:45:53;5.75;97.61
65972;SHT31;52726;48.852;9.152;2023-12-14T01:48:18;5.76;97.65
65972;SHT31;52726;48.852;9.152;2023-12-14T01:50:43;5.76;97.66
65972;SHT31;52726;48.852;9.152;2023-12-14T01:53:26;5.76;97.63
65972;SHT31;52726;48.852;9.152;2023-12-14T01:55:52;5.77;97.59
65972;SHT31;52726;48.852;9.152;2023-12-14T01:58:17;5.79;97.65
65972;SHT31;52726;48.852;9.152;2023-12-14T02:00:55;5.77;97.43
65972;SHT31;52726;48.852;9.152;2023-12-14T02:03:23;5.76;97.30
65972;SHT31;52726;48.852;9.152;2023-12-14T02:05:48;5.75;97.53
65972;SHT31;52726;48.852;9.152;2023-12-14T02:08:13;5.75;97.46
65972;SHT31;52726;48.852;9.152;2023-12-14T02:10:39;5.66;97.38
65972;SHT31;52726;48.852;9.152;2023-12-14T02:13:04;5.66;97.43
65972;SHT31;52726;48.852;9.152;2023-12-14T02:15:30;5.66;97.60
65972;SHT31;52726;48.852;9.152;2023-12-14T02:17:55;5.66;97.66
65972;SHT31;52726;48.852;9.152;2023-12-14T02:20:21;5.66;97.78
65972;SHT31;52726;48.852;9.152;2023-12-14T02:22:56;5.65;97.81
65972;SHT31;52726;48.852;9.152;2023-12-14T02:25:22;5.62;97.66
65972;SHT31;52726;48.852;9.152;2023-12-14T02:27:49;5.60;97.67
65972;SHT31;52726;48.852;9.152;2023-12-14T02:30:15;5.60;97.58
65972;SHT31;52726;48.852;9.152;2023-12-14T02:32:41;5.58;97.54
65972;SHT31;52726;48.852;9.152;2023-12-14T02:35:06;5.60;97.52
65972;SHT31;52726;48.852;9.152;2023-12-14T02:37:33;5.59;97.47
65972;SHT31;52726;48.852;9.152;2023-12-14T02:39:59;5.58;97.50
65972;SHT31;52726;48.852;9.152;2023-12-14T02:42:25;5.55;97.45
65972;SHT31;52726;48.852;9.152;2023-12-14T02:44:51;5.54;97.57
65972;SHT31;52726;48.852;9.152;2023-12-14T02:47:17;5.52;97.59
65972;SHT31;52726;48.852;9.152;2023-12-14T02:49:43;5.51;97.72
65972;SHT31;52726;48.852;9.152;2023-12-14T02:52:09;5.52;97.76
65972;SHT31;52726;48.852;9.152;2023-12-14T02:54:34;5.55;97.77
65972;SHT31;52726;48.852;9.152;2023-12-14T02:56:59;5.55;97.86
65972;SHT31;52726;48.852;9.152;2023-12-14T02:59:25;5.54;97.83
65972;SHT31;52726;48.852;9.152;2023-12-14T03:01:50;5.56;97.72
65972;SHT31;52726;48.852;9.152;2023-12-14T03:04:15;5.54;97.76
65972;SHT31;52726;48.852;9.152;2023-12-14T03:06:41;5.55;97.76
65972;SHT31;52726;48.852;9.152;2023-12-14T03:09:06;5.55;97.86
65972;SHT31;52726;48.852;9.152;2023-12-14T03:11:31;5.59;97.74
65972;SHT31;52726;48.852;9.152;2023-12-14T03:13:57;5.56;97.74
65972;SHT31;52726;48.852;9.152;2023-12-14T03:16:22;5.55;97.58
65972;SHT31;52726;48.852;9.152;2023-12-14T03:18:47;5.55;97.55
65972;SHT31;52726;48.852;9.152;2023-12-14T03:21:17;5.55;97.57
65972;SHT31;52726;48.852;9.152;2023-12-14T03:23:43;5.56;97.65
65972;SHT31;52726;48.852;9.152;2023-12-14T03:26:08;5.55;97.62
65972;SHT31;52726;48.852;9.152;2023-12-14T03:28:33;5.56;97.63
65972;SHT31;52726;48.852;9.152;2023-12-14T03:30:59;5.55;97.64
65972;SHT31;52726;48.852;9.152;2023-12-14T03:33:25;5.55;97.66
65972;SHT31;52726;48.852;9.152;2023-12-14T03:35:50;5.56;97.63
65972;SHT31;52726;48.852;9.152;2023-12-14T03:38:16;5.55;97.57
65972;SHT31;52726;48.852;9.152;2023-12-14T03:40:41;5.56;97.68
65972;SHT31;52726;48.852;9.152;2023-12-14T03:43:06;5.56;97.74
65972;SHT31;52726;48.852;9.152;2023-12-14T03:45:32;5.59;97.79
65972;SHT31;52726;48.852;9.152;2023-12-14T03:47:57;5.58;97.79
65972;SHT31;52726;48.852;9.152;2023-12-14T03:50:23;5.58;97.69
65972;SHT31;52726;48.852;9.152;2023-12-14T03:52:49;5.56;97.63
65972;SHT31;52726;48.852;9.152;2023-12-14T03:55:14;5.58;97.66
65972;SHT31;52726;48.852;9.152;2023-12-14T03:57:43;5.60;97.65
65972;SHT31;52726;48.852;9.152;2023-12-14T04:00:12;5.62;97.62
65972;SHT31;52726;48.852;9.152;2023-12-14T04:02:38;5.59;97.66
65972;SHT31;52726;48.852;9.152;2023-12-14T04:05:05;5.63;97.63
65972;SHT31;52726;48.852;9.152;2023-12-14T04:07:31;5.62;97.60
65972;SHT31;52726;48.852;9.152;2023-12-14T04:09:56;5.59;97.56
65972;SHT31;52726;48.852;9.152;2023-12-14T04:12:21;5.60;97.68
65972;SHT31;52726;48.852;9.152;2023-12-14T04:14:47;5.59;97.74
65972;SHT31;52726;48.852;9.152;2023-12-14T04:17:12;5.59;97.79
65972;SHT31;52726;48.852;9.152;2023-12-14T04:19:39;5.60;97.88
65972;SHT31;52726;48.852;9.152;2023-12-14T04:22:04;5.58;97.92
65972;SHT31;52726;48.852;9.152;2023-12-14T04:24:29;5.58;97.98
65972;SHT31;52726;48.852;9.152;2023-12-14T04:26:55;5.58;97.98
65972;SHT31;52726;48.852;9.152;2023-12-14T04:29:21;5.58;98.04
65972;SHT31;52726;48.852;9.152;2023-12-14T04:31:46;5.60;98.04
65972;SHT31;52726;48.852;9.152;2023-12-14T04:34:12;5.58;98.04
65972;SHT31;52726;48.852;9.152;2023-12-14T04:36:41;5.62;98.09
65972;SHT31;52726;48.852;9.152;2023-12-14T04:39:06;5.56;98.02
65972;SHT31;52726;48.852;9.152;2023-12-14T04:41:32;5.60;98.09
65972;SHT31;52726;48.852;9.152;2023-12-14T04:43:57;5.58;98.08
65972;SHT31;52726;48.852;9.152;2023-12-14T04:46:22;5.58;98.11
65972;SHT31;52726;48.852;9.152;2023-12-14T04:48:48;5.60;98.15
65972;SHT31;52726;48.852;9.152;2023-12-14T04:51:13;5.59;98.19
65972;SHT31;52726;48.852;9.152;2023-12-14T04:53:39;5.58;98.16
65972;SHT31;52726;48.852;9.152;2023-12-14T04:56:05;5.62;98.22
65972;SHT31;52726;48.852;9.152;2023-12-14T04:58:31;5.62;98.12
65972;SHT31;52726;48.852;9.152;2023-12-14T05:00:56;5.63;98.13
65972;SHT31;52726;48.852;9.152;2023-12-14T05:03:21;5.63;98.12
65972;SHT31;52726;48.852;9.152;2023-12-14T05:05:46;5.67;98.14
65972;SHT31;52726;48.852;9.152;2023-12-14T05:08:12;5.67;98.14
65972;SHT31;52726;48.852;9.152;2023-12-14T05:10:37;5.65;98.17
65972;SHT31;52726;48.852;9.152;2023-12-14T05:13:03;5.70;98.22
65972;SHT31;52726;48.852;9.152;2023-12-14T05:15:28;5.69;98.25
65972;SHT31;52726;48.852;9.152;2023-12-14T05:17:53;5.70;98.17
65972;SHT31;52726;48.852;9.152;2023-12-14T05:20:19;5.69;98.22
65972;SHT31;52726;48.852;9.152;2023-12-14T05:22:45;5.72;98.24
65972;SHT31;52726;48.852;9.152;2023-12-14T05:25:11;5.72;98.19
65972;SHT31;52726;48.852;9.152;2023-12-14T05:27:36;5.73;98.23
65972;SHT31;52726;48.852;9.152;2023-12-14T05:30:01;5.73;98.23
65972;SHT31;52726;48.852;9.152;2023-12-14T05:32:27;5.76;98.24
65972;SHT31;52726;48.852;9.152;2023-12-14T05:34:53;5.76;98.29
65972;SHT31;52726;48.852;9.152;2023-12-14T05:37:18;5.83;98.34
65972;SHT31;52726;48.852;9.152;2023-12-14T05:39:43;5.80;98.29
65972;SHT31;52726;48.852;9.152;2023-12-14T05:42:10;5.82;98.31
65972;SHT31;52726;48.852;9.152;2023-12-14T05:44:35;5.82;98.30
65972;SHT31;52726;48.852;9.152;2023-12-14T05:47:01;5.82;98.34
65972;SHT31;52726;48.852;9.152;2023-12-14T05:49:26;5.83;98.36
65972;SHT31;52726;48.852;9.152;2023-12-14T05:51:51;5.83;98.45
65972;SHT31;52726;48.852;9.152;2023-12-14T05:54:17;5.85;98.42
65972;SHT31;52726;48.852;9.152;2023-12-14T05:56:42;5.86;98.47
65972;SHT31;52726;48.852;9.152;2023-12-14T05:59:07;5.85;98.51
65972;SHT31;52726;48.852;9.152;2023-12-14T06:01:32;5.85;98.55
65972;SHT31;52726;48.852;9.152;2023-12-14T06:03:58;5.86;98.55
65972;SHT31;52726;48.852;9.152;2023-12-14T06:06:23;5.85;98.53
65972;SHT31;52726;48.852;9.152;2023-12-14T06:08:48;5.83;98.58
65972;SHT31;52726;48.852;9.152;2023-12-14T06:11:14;5.83;98.56
65972;SHT31;52726;48.852;9.152;2023-12-14T06:13:39;5.83;98.64
65972;SHT31;52726;48.852;9.152;2023-12-14T06:16:05;5.86;98.70
65972;SHT31;52726;48.852;9.152;2023-12-14T06:18:32;5.86;98.72
65972;SHT31;52726;48.852;9.152;2023-12-14T06:20:57;5.89;98.70
65972;SHT31;52726;48.852;9.152;2023-12-14T06:23:22;5.89;98.77
65972;SHT31;52726;48.852;9.152;2023-12-14T06:25:48;5.86;98.70
65972;SHT31;52726;48.852;9.152;2023-12-14T06:28:13;5.87;98.73
65972;SHT31;52726;48.852;9.152;2023-12-14T06:30:38;5.83;98.70
65972;SHT31;52726;48.852;9.152;2023-12-14T06:33:04;5.86;98.79
65972;SHT31;52726;48.852;9.152;2023-12-14T06:35:29;5.89;98.83
65972;SHT31;52726;48.852;9.152;2023-12-14T06:37:54;5.86;98.85
65972;SHT31;52726;48.852;9.152;2023-12-14T06:40:19;5.89;98.90
65972;SHT31;52726;48.852;9.152;2023-12-14T06:42:45;5.90;98.91
65972;SHT31;52726;48.852;9.152;2023-12-14T06:45:10;5.90;98.93
65972;SHT31;52726;48.852;9.152;2023-12-14T06:47:35;5.90;98.88
65972;SHT31;52726;48.852;9.152;2023-12-14T06:50:01;5.93;98.97
65972;SHT31;52726;48.852;9.152;2023-12-14T06:52:26;5.92;98.91
65972;SHT31;52726;48.852;9.152;2023-12-14T06:54:52;5.96;98.92
65972;SHT31;52726;48.852;9.152;2023-12-14T06:57:17;5.97;98.92
65972;SHT31;52726;48.852;9.152;2023-12-14T06:59:42;5.96;98.91
65972;SHT31;52726;48.852;9.152;2023-12-14T07:02:08;5.97;98.92
65972;SHT31;52726;48.852;9.152;2023-12-14T07:04:33;5.97;98.90
65972;SHT31;52726;48.852;9.152;2023-12-14T07:06:58;6.00;98.97
65972;SHT31;52726;48.852;9.152;2023-12-14T07:09:24;6.02;98.95
65972;SHT31;52726;48.852;9.152;2023-12-14T07:11:50;6.02;98.92
65972;SHT31;52726;48.852;9.152;2023-12-14T07:14:15;5.99;98.93
65972;SHT31;52726;48.852;9.152;2023-12-14T07:16:41;6.03;98.89
65972;SHT31;52726;48.852;9.152;2023-12-14T07:19:07;6.00;98.85
65972;SHT31;52726;48.852;9.152;2023-12-14T07:21:32;6.03;98.84
65972;SHT31;52726;48.852;9.152;2023-12-14T07:23:58;6.04;98.85
65972;SHT31;52726;48.852;9.152;2023-12-14T07:26:24;6.07;98.85
65972;SHT31;52726;48.852;9.152;2023-12-14T07:28:49;6.07;98.82
65972;SHT31;52726;48.852;9.152;2023-12-14T07:31:15;6.09;98.86
65972;SHT31;52726;48.852;9.152;2023-12-14T07:33:40;6.11;98.82
65972;SHT31;52726;48.852;9.152;2023-12-14T07:36:05;6.11;98.79
65972;SHT31;52726;48.852;9.152;2023-12-14T07:38:31;6.13;98.84
65972;SHT31;52726;48.852;9.152;2023-12-14T07:40:56;6.17;98.87
65972;SHT31;52726;48.852;9.152;2023-12-14T07:43:22;6.16;98.79
65972;SHT31;52726;48.852;9.152;2023-12-14T07:45:48;6.20;98.77
65972;SHT31;52726;48.852;9.152;2023-12-14T07:48:13;6.17;98.75
65972;SHT31;52726;48.852;9.152;2023-12-14T07:50:39;6.20;98.76
65972;SHT31;52726;48.852;9.152;2023-12-14T07:53:04;6.23;98.71
65972;SHT31;52726;48.852;9.152;2023-12-14T07:55:30;6.25;98.69
65972;SHT31;52726;48.852;9.152;2023-12-14T07:57:55;6.28;98.69
65972;SHT31;52726;48.852;9.152;2023-12-14T08:00:21;6.33;98.68
65972;SHT31;52726;48.852;9.152;2023-12-14T08:02:46;6.33;98.64
65972;SHT31;52726;48.852;9.152;2023-12-14T08:05:11;6.37;98.63
65972;SHT31;52726;48.852;9.152;2023-12-14T08:07:37;6.41;98.63
65972;SHT31;52726;48.852;9.152;2023-12-14T08:10:02;6.46;98.52
65972;SHT31;52726;48.852;9.152;2023-12-14T08:12:28;6.53;98.25
65972;SHT31;52726;48.852;9.152;2023-12-14T08:14:53;6.55;98.26
65972;SHT31;52726;48.852;9.152;2023-12-14T08:17:19;6.59;98.26
65972;SHT31;52726;48.852;9.152;2023-12-14T08:19:45;6.61;98.20
65972;SHT31;52726;48.852;9.152;2023-12-14T08:22:10;6.61;98.12
65972;SHT31;52726;48.852;9.152;2023-12-14T08:24:40;6.62;97.94
65972;SHT31;52726;48.852;9.152;2023-12-14T08:27:06;6.62;97.84
65972;SHT31;52726;48.852;9.152;2023-12-14T08:29:31;6.68;97.92
65972;SHT31;52726;48.852;9.152;2023-12-14T08:31:57;6.68;97.77
65972;SHT31;52726;48.852;9.152;2023-12-14T08:34:25;6.78;97.73
65972;SHT31;52726;48.852;9.152;2023-12-14T08:36:50;6.80;97.54
65972;SHT31;52726;48.852;9.152;2023-12-14T08:39:16;6.83;97.45
65972;SHT31;52726;48.852;9.152;2023-12-14T08:41:42;6.82;97.42
65972;SHT31;52726;48.852;9.152;2023-12-14T08:44:07;6.86;97.33
65972;SHT31;52726;48.852;9.152;2023-12-14T08:46:44;6.96;97.34
65972;SHT31;52726;48.852;9.152;2023-12-14T08:49:10;7.06;97.14
65972;SHT31;52726;48.852;9.152;2023-12-14T08:51:37;7.20;96.97
65972;SHT31;52726;48.852;9.152;2023-12-14T08:54:03;7.32;96.93
65972;SHT31;52726;48.852;9.152;2023-12-14T08:56:29;7.38;96.18
65972;SHT31;52726;48.852;9.152;2023-12-14T08:58:55;7.47;96.18
65972;SHT31;52726;48.852;9.152;2023-12-14T09:01:20;7.44;95.83
65972;SHT31;52726;48.852;9.152;2023-12-14T09:03:46;7.35;95.15
65972;SHT31;52726;48.852;9.152;2023-12-14T09:06:11;7.37;95.69
65972;SHT31;52726;48.852;9.152;2023-12-14T09:08:37;7.38;95.68
65972;SHT31;52726;48.852;9.152;2023-12-14T09:11:02;7.44;95.62
65972;SHT31;52726;48.852;9.152;2023-12-14T09:13:29;7.44;95.52
65972;SHT31;52726;48.852;9.152;2023-12-14T09:15:54;7.41;95.28
65972;SHT31;52726;48.852;9.152;2023-12-14T09:18:20;7.43;95.66
65972;SHT31;52726;48.852;9.152;2023-12-14T09:20:47;7.44;95.54
65972;SHT31;52726;48.852;9.152;2023-12-14T09:23:13;7.38;95.44
65972;SHT31;52726;48.852;9.152;2023-12-14T09:25:39;7.38;95.42
65972;SHT31;52726;48.852;9.152;2023-12-14T09:28:04;7.44;95.68
65972;SHT31;52726;48.852;9.152;2023-12-14T09:30:30;7.47;95.51
65972;SHT31;52726;48.852;9.152;2023-12-14T09:32:55;7.54;95.89
65972;SHT31;52726;48.852;9.152;2023-12-14T09:35:20;7.52;95.82
65972;SHT31;52726;48.852;9.152;2023-12-14T09:37:45;7.51;95.59
65972;SHT31;52726;48.852;9.152;2023-12-14T09:40:11;7.55;95.69
65972;SHT31;52726;48.852;9.152;2023-12-14T09:42:38;7.55;95.62
65972;SHT31;52726;48.852;9.152;2023-12-14T09:45:06;7.61;95.39
65972;SHT31;52726;48.852;9.152;2023-12-14T09:47:32;7.75;95.41
65972;SHT31;52726;48.852;9.152;2023-12-14T09:49:58;7.78;94.89
65972;SHT31;52726;48.852;9.152;2023-12-14T09:52:24;7.82;94.99
65972;SHT31;52726;48.852;9.152;2023-12-14T09:54:50;7.90;94.89
65972;SHT31;52726;48.852;9.152;2023-12-14T09:57:15;7.96;94.78
65972;SHT31;52726;48.852;9.152;2023-12-14T09:59:40;8.02;94.14
65972;SHT31;52726;48.852;9.152;2023-12-14T10:02:11;8.12;94.83
65972;SHT31;52726;48.852;9.152;2023-12-14T10:04:37;8.10;94.55
65972;SHT31;52726;48.852;9.152;2023-12-14T10:07:03;8.20;94.60
65972;SHT31;52726;48.852;9.152;2023-12-14T10:09:36;8.22;94.08
65972;SHT31;52726;48.852;9.152;2023-12-14T10:12:07;8.22;93.77
65972;SHT31;52726;48.852;9.152;2023-12-14T10:14:33;8.13;93.22
65972;SHT31;52726;48.852;9.152;2023-12-14T10:16:59;8.14;93.19
65972;SHT31;52726;48.852;9.152;2023-12-14T10:19:24;8.06;93.40
65972;SHT31;52726;48.852;9.152;2023-12-14T10:21:50;8.02;93.43
65972;SHT31;52726;48.852;9.152;2023-12-14T10:24:17;7.83;92.70
65972;SHT31;52726;48.852;9.152;2023-12-14T10:26:46;7.78;93.21
65972;SHT31;52726;48.852;9.152;2023-12-14T10:29:11;7.78;93.28
65972;SHT31;52726;48.852;9.152;2023-12-14T10:31:38;7.78;93.94
65972;SHT31;52726;48.852;9.152;2023-12-14T10:34:04;7.83;94.29
65972;SHT31;52726;48.852;9.152;2023-12-14T10:36:30;7.92;94.39
65972;SHT31;52726;48.852;9.152;2023-12-14T10:39:00;7.92;93.81
65972;SHT31;52726;48.852;9.152;2023-12-14T10:41:26;7.90;93.32
65972;SHT31;52726;48.852;9.152;2023-12-14T10:43:55;7.86;93.40
65972;SHT31;52726;48.852;9.152;2023-12-14T10:46:21;7.82;93.60
65972;SHT31;52726;48.852;9.152;2023-12-14T10:48:48;7.81;93.96
65972;SHT31;52726;48.852;9.152;2023-12-14T10:51:15;7.79;93.87
65972;SHT31;52726;48.852;9.152;2023-12-14T10:53:41;7.82;94.11
65972;SHT31;52726;48.852;9.152;2023-12-14T10:56:12;7.79;93.94
65972;SHT31;52726;48.852;9.152;2023-12-14T10:58:47;7.74;93.75
65972;SHT31;52726;48.852;9.152;2023-12-14T11:01:18;7.75;93.64
65972;SHT31;52726;48.852;9.152;2023-12-14T11:03:44;7.76;93.71
65972;SHT31;52726;48.852;9.152;2023-12-14T11:06:29;7.82;93.80
65972;SHT31;52726;48.852;9.152;2023-12-14T11:09:00;7.85;93.33
65972;SHT31;52726;48.852;9.152;2023-12-14T11:11:29;7.79;92.66
65972;SHT31;52726;48.852;9.152;2023-12-14T11:13:54;7.85;93.22
65972;SHT31;52726;48.852;9.152;2023-12-14T11:16:25;7.85;92.88
65972;SHT31;52726;48.852;9.152;2023-12-14T11:24:18;7.95;92.78
65972;SHT31;52726;48.852;9.152;2023-12-14T11:26:44;8.07;92.94
65972;SHT31;52726;48.852;9.152;2023-12-14T11:29:09;8.13;92.75
65972;SHT31;52726;48.852;9.152;2023-12-14T11:31:34;8.05;92.01
65972;SHT31;52726;48.852;9.152;2023-12-14T11:34:00;8.03;92.35
65972;SHT31;52726;48.852;9.152;2023-12-14T11:36:28;7.96;92.55
65972;SHT31;52726;48.852;9.152;2023-12-14T11:38:54;8.03;92.81
65972;SHT31;52726;48.852;9.152;2023-12-14T11:41:22;8.10;92.65
65972;SHT31;52726;48.852;9.152;2023-12-14T11:43:50;8.14;92.85
65972;SHT31;52726;48.852;9.152;2023-12-14T11:46:15;8.20;92.38
65972;SHT31;52726;48.852;9.152;2023-12-14T11:48:44;8.27;92.01
65972;SHT31;52726;48.852;9.152;2023-12-14T11:51:10;8.38;92.13
65972;SHT31;52726;48.852;9.152;2023-12-14T11:53:36;8.36;90.46
65972;SHT31;52726;48.852;9.152;2023-12-14T11:56:04;8.30;89.17
65972;SHT31;52726;48.852;9.152;2023-12-14T11:58:31;8.38;89.69
65972;SHT31;52726;48.852;9.152;2023-12-14T12:01:16;8.38;88.66
65972;SHT31;52726;48.852;9.152;2023-12-14T12:03:42;8.41;88.99
65972;SHT31;52726;48.852;9.152;2023-12-14T12:06:21;8.37;88.21
65972;SHT31;52726;48.852;9.152;2023-12-14T12:08:48;8.40;88.91
65972;SHT31;52726;48.852;9.152;2023-12-14T12:11:21;8.52;88.85
65972;SHT31;52726;48.852;9.152;2023-12-14T12:13:51;8.58;88.88
65972;SHT31;52726;48.852;9.152;2023-12-14T12:16:16;8.51;89.25
65972;SHT31;52726;48.852;9.152;2023-12-14T12:18:42;8.51;89.43
65972;SHT31;52726;48.852;9.152;2023-12-14T12:21:07;8.45;88.62
65972;SHT31;52726;48.852;9.152;2023-12-14T12:23:34;8.40;88.91
65972;SHT31;52726;48.852;9.152;2023-12-14T12:26:00;8.26;89.96
65972;SHT31;52726;48.852;9.152;2023-12-14T12:28:25;8.10;91.10
65972;SHT31;52726;48.852;9.152;2023-12-14T12:30:50;8.00;91.69
65972;SHT31;52726;48.852;9.152;2023-12-14T12:33:16;7.89;92.21
65972;SHT31;52726;48.852;9.152;2023-12-14T12:35:41;7.82;92.78
65972;SHT31;52726;48.852;9.152;2023-12-14T12:38:06;7.89;93.54
65972;SHT31;52726;48.852;9.152;2023-12-14T12:40:32;7.87;93.29
65972;SHT31;52726;48.852;9.152;2023-12-14T12:42:58;7.95;93.91
65972;SHT31;52726;48.852;9.152;2023-12-14T12:45:24;7.97;93.85
65972;SHT31;52726;48.852;9.152;2023-12-14T12:47:53;8.02;93.68
65972;SHT31;52726;48.852;9.152;2023-12-14T12:50:18;8.05;93.31
65972;SHT31;52726;48.852;9.152;2023-12-14T12:52:43;8.06;93.21
65972;SHT31;52726;48.852;9.152;2023-12-14T12:55:11;7.99;93.33
65972;SHT31;52726;48.852;9.152;2023-12-14T12:57:37;7.95;93.73
65972;SHT31;52726;48.852;9.152;2023-12-14T13:00:03;7.87;94.20
65972;SHT31;52726;48.852;9.152;2023-12-14T13:02:36;7.83;94.32
65972;SHT31;52726;48.852;9.152;2023-12-14T13:05:02;7.66;93.69
65972;SHT31;52726;48.852;9.152;2023-12-14T13:07:27;7.37;91.45
65972;SHT31;52726;48.852;9.152;2023-12-14T13:09:53;7.28;91.93
65972;SHT31;52726;48.852;9.152;2023-12-14T13:12:18;7.27;92.43
65972;SHT31;52726;48.852;9.152;2023-12-14T13:14:43;7.19;92.77
65972;SHT31;52726;48.852;9.152;2023-12-14T13:17:09;7.17;93.17
65972;SHT31;52726;48.852;9.152;2023-12-14T13:19:34;7.19;93.79
65972;SHT31;52726;48.852;9.152;2023-12-14T13:21:59;7.13;93.62
65972;SHT31;52726;48.852;9.152;2023-12-14T13:24:26;7.11;94.21
65972;SHT31;52726;48.852;9.152;2023-12-14T13:26:52;7.11;94.49
65972;SHT31;52726;48.852;9.152;2023-12-14T13:29:17;7.03;94.33
65972;SHT31;52726;48.852;9.152;2023-12-14T13:31:42;6.99;94.45
65972;SHT31;52726;48.852;9.152;2023-12-14T13:34:08;6.89;94.20
65972;SHT31;52726;48.852;9.152;2023-12-14T13:36:33;6.88;94.43
65972;SHT31;52726;48.852;9.152;2023-12-14T13:38:59;6.85;94.62
65972;SHT31;52726;48.852;9.152;2023-12-14T13:41:26;6.88;94.79
65972;SHT31;52726;48.852;9.152;2023-12-14T13:43:52;6.83;94.76
65972;SHT31;52726;48.852;9.152;2023-12-14T13:46:18;6.86;95.06
65972;SHT31;52726;48.852;9.152;2023-12-14T13:48:43;6.89;95.38
65972;SHT31;52726;48.852;9.152;2023-12-14T13:51:09;6.89;95.48
65972;SHT31;52726;48.852;9.152;2023-12-14T13:53:34;6.93;95.69
65972;SHT31;52726;48.852;9.152;2023-12-14T13:55:59;6.93;95.84
65972;SHT31;52726;48.852;9.152;2023-12-14T13:58:25;6.96;96.01
65972;SHT31;52726;48.852;9.152;2023-12-14T14:00:50;6.93;95.75
65972;SHT31;52726;48.852;9.152;2023-12-14T14:03:15;6.90;95.59
65972;SHT31;52726;48.852;9.152;2023-12-14T14:05:41;6.90;95.62
65972;SHT31;52726;48.852;9.152;2023-12-14T14:08:09;6.89;95.29
65972;SHT31;52726;48.852;9.152;2023-12-14T14:10:34;6.83;95.40
65972;SHT31;52726;48.852;9.152;2023-12-14T14:12:59;6.86;95.57
65972;SHT31;52726;48.852;9.152;2023-12-14T14:15:25;6.86;95.63
65972;SHT31;52726;48.852;9.152;2023-12-14T14:17:50;6.90;95.75
65972;SHT31;52726;48.852;9.152;2023-12-14T14:20:17;6.88;95.54
65972;SHT31;52726;48.852;9.152;2023-12-14T14:22:43;6.90;95.79
65972;SHT31;52726;48.852;9.152;2023-12-14T14:25:09;6.88;95.95
65972;SHT31;52726;48.852;9.152;2023-12-14T14:27:35;6.88;95.94
65972;SHT31;52726;48.852;9.152;2023-12-14T14:30:00;6.85;95.74
65972;SHT31;52726;48.852;9.152;2023-12-14T14:32:26;6.85;95.83
65972;SHT31;52726;48.852;9.152;2023-12-14T14:34:52;6.82;95.79
65972;SHT31;52726;48.852;9.152;2023-12-14T14:37:19;6.82;95.84
65972;SHT31;52726;48.852;9.152;2023-12-14T14:39:45;6.82;96.00
65972;SHT31;52726;48.852;9.152;2023-12-14T14:42:10;6.80;95.95
65972;SHT31;52726;48.852;9.152;2023-12-14T14:44:35;6.79;96.03
65972;SHT31;52726;48.852;9.152;2023-12-14T14:47:02;6.80;96.18
65972;SHT31;52726;48.852;9.152;2023-12-14T14:49:27;6.80;96.31
65972;SHT31;52726;48.852;9.152;2023-12-14T14:51:53;6.76;96.34
65972;SHT31;52726;48.852;9.152;2023-12-14T14:54:18;6.79;96.47
65972;SHT31;52726;48.852;9.152;2023-12-14T14:56:44;6.80;96.51
65972;SHT31;52726;48.852;9.152;2023-12-14T14:59:09;6.78;96.60
65972;SHT31;52726;48.852;9.152;2023-12-14T15:01:36;6.75;96.60
65972;SHT31;52726;48.852;9.152;2023-12-14T15:04:01;6.75;96.65
65972;SHT31;52726;48.852;9.152;2023-12-14T15:06:26;6.75;96.75
65972;SHT31;52726;48.852;9.152;2023-12-14T15:08:52;6.73;96.76
65972;SHT31;52726;48.852;9.152;2023-12-14T15:11:17;6.72;96.76
65972;SHT31;52726;48.852;9.152;2023-12-14T15:13:42;6.69;96.82
65972;SHT31;52726;48.852;9.152;2023-12-14T15:16:08;6.67;96.81
65972;SHT31;52726;48.852;9.152;2023-12-14T15:18:33;6.65;96.81
65972;SHT31;52726;48.852;9.152;2023-12-14T15:21:06;6.61;96.92
65972;SHT31;52726;48.852;9.152;2023-12-14T15:23:32;6.59;97.05
65972;SHT31;52726;48.852;9.152;2023-12-14T15:25:57;6.59;97.09
65972;SHT31;52726;48.852;9.152;2023-12-14T15:28:22;6.59;97.20
65972;SHT31;52726;48.852;9.152;2023-12-14T15:30:48;6.58;97.15
65972;SHT31;52726;48.852;9.152;2023-12-14T15:33:13;6.61;97.21
65972;SHT31;52726;48.852;9.152;2023-12-14T15:35:38;6.58;97.23
65972;SHT31;52726;48.852;9.152;2023-12-14T15:38:04;6.58;97.14
65972;SHT31;52726;48.852;9.152;2023-12-14T15:40:29;6.59;97.17
65972;SHT31;52726;48.852;9.152;2023-12-14T15:42:55;6.58;97.24